Time;durP1;ratioP1;P1;durP2;ratioP2;P2;SDS_P1;SDS_P2;PMS_P1;PMS_P2;Temp;Humidity;BMP_temperature;BMP_pressure;BME280_temperature;BME280_humidity;BME280_pressure;Samples;Min_cycle;Max_cycle;Signal;HPM_P1;HPM_P2
2023/04/16 00:01:33;;;;;;;275.17;9.80;;;;;;;0.63;79.04;95584.75;5040298;28;20058;-68
2023/04/16 00:04:01;;;;;;;97.10;4.97;;;;;;;0.63;78.34;95585.59;5039674;28;20422;-68
2023/04/16 00:06:27;;;;;;;133.93;6.17;;;;;;;1.14;76.63;95580.03;5040136;28;20135;-68
2023/04/16 00:08:52;;;;;;;81.25;4.65;;;;;;;0.90;77.38;95583.59;5040373;28;20490;-68
2023/04/16 00:11:18;;;;;;;216.45;9.45;;;;;;;0.76;78.06;95582.88;5039230;28;20065;-68
2023/04/16 00:13:43;;;;;;;231.23;10.77;;;;;;;0.35;79.62;95582.44;5039441;28;20423;-68
2023/04/16 00:16:09;;;;;;;349.25;12.23;;;;;;;0.44;78.87;95581.75;5038922;28;20097;-68
2023/04/16 00:18:34;;;;;;;196.27;9.13;;;;;;;0.10;81.42;95576.41;5038993;28;20070;-68
2023/04/16 00:21:00;;;;;;;160.73;8.10;;;;;;;0.02;81.61;95584.84;5036765;28;20048;-68
2023/04/16 00:23:25;;;;;;;187.98;8.60;;;;;;;0.06;81.63;95582.81;5038790;28;20640;-69
2023/04/16 00:25:52;;;;;;;187.30;9.18;;;;;;;0.14;81.79;95584.88;5037607;28;20052;-68
2023/04/16 00:28:18;;;;;;;202.30;9.93;;;;;;;-0.07;82.85;95586.34;5038261;28;20055;-69
2023/04/16 00:30:43;;;;;;;359.40;14.13;;;;;;;0.49;80.22;95583.19;5037405;28;20537;-68
2023/04/16 00:33:08;;;;;;;115.72;7.85;;;;;;;0.58;79.11;95583.31;5037914;28;20526;-68
2023/04/16 00:35:34;;;;;;;88.85;5.45;;;;;;;1.12;77.42;95574.91;5038426;28;20076;-69
2023/04/16 00:37:59;;;;;;;93.78;5.07;;;;;;;1.27;76.58;95579.91;5039019;28;20055;-69
2023/04/16 00:40:28;;;;;;;144.48;6.80;;;;;;;0.77;77.83;95591.56;5038786;28;20053;-69
2023/04/16 00:42:54;;;;;;;79.68;5.13;;;;;;;0.77;78.52;95587.16;5038872;28;20117;-68
2023/04/16 00:45:19;;;;;;;127.85;7.53;;;;;;;0.83;77.72;95589.34;5038059;28;20072;-69
2023/04/16 00:47:44;;;;;;;49.50;3.72;;;;;;;1.21;76.33;95589.09;5039320;28;20075;-68
2023/04/16 00:50:10;;;;;;;77.40;5.13;;;;;;;1.45;75.20;95588.97;5038967;28;20071;-68
2023/04/16 00:52:35;;;;;;;140.32;7.28;;;;;;;1.28;75.42;95594.69;5039934;28;20045;-69
2023/04/16 00:55:01;;;;;;;154.25;7.40;;;;;;;1.24;75.54;95596.72;5038905;28;20073;-68
2023/04/16 00:57:26;;;;;;;108.55;5.95;;;;;;;1.22;75.86;95590.75;5038257;28;20032;-68
2023/04/16 00:59:53;;;;;;;194.20;9.98;;;;;;;0.76;77.20;95597.78;5038754;28;20541;-69
2023/04/16 01:02:18;;;;;;;58.17;4.25;;;;;;;0.73;77.87;95596.22;5037362;28;20583;-70
2023/04/16 01:04:43;;;;;;;123.05;7.53;;;;;;;0.51;78.78;95608.31;5032297;22;20094;-75
2023/04/16 01:07:09;;;;;;;104.47;5.95;;;;;;;0.47;79.63;95606.88;5003490;28;20082;-75
2023/04/16 01:09:34;;;;;;;57.28;4.95;;;;;;;0.71;78.49;95613.84;5002517;28;20120;-75
2023/04/16 01:12:00;;;;;;;104.65;6.85;;;;;;;0.96;76.85;95610.19;5002719;28;20066;-75
2023/04/16 01:14:26;;;;;;;79.32;5.35;;;;;;;1.20;76.14;95613.66;5002771;28;20749;-75
2023/04/16 01:16:51;;;;;;;68.25;5.20;;;;;;;1.06;76.81;95612.09;5004291;28;20047;-75
2023/04/16 01:19:17;;;;;;;54.60;5.90;;;;;;;1.18;76.45;95616.41;5007741;28;20457;-75
2023/04/16 01:21:42;;;;;;;91.72;6.40;;;;;;;0.82;77.62;95616.47;5011602;28;20409;-76
2023/04/16 01:24:07;;;;;;;85.30;5.97;;;;;;;0.88;77.92;95620.41;5013798;28;20074;-75
2023/04/16 01:26:33;;;;;;;88.53;4.95;;;;;;;0.84;78.42;95619.84;5018129;28;20670;-75
2023/04/16 01:28:58;;;;;;;83.38;5.45;;;;;;;0.85;77.84;95624.13;5013084;28;20113;-75
2023/04/16 01:31:24;;;;;;;63.85;4.95;;;;;;;0.84;77.91;95618.97;5011170;28;20077;-75
2023/04/16 01:33:49;;;;;;;66.35;4.82;;;;;;;1.03;77.38;95621.06;5006814;28;20050;-75
2023/04/16 01:36:15;;;;;;;49.13;4.28;;;;;;;1.21;76.26;95620.56;5011852;28;20062;-75
2023/04/16 01:38:40;;;;;;;70.05;4.72;;;;;;;1.03;77.19;95626.28;5007401;28;20169;-75
2023/04/16 01:41:06;;;;;;;54.83;4.75;;;;;;;1.25;76.60;95624.63;5011033;28;20459;-75
2023/04/16 01:43:31;;;;;;;221.18;8.45;;;;;;;1.86;73.71;95626.03;5008267;28;20072;-75
2023/04/16 01:46:19;;;;;;;41.58;5.85;;;;;;;1.96;72.79;95625.25;5002737;28;20038;-75
2023/04/16 01:48:46;;;;;;;37.00;4.35;;;;;;;1.65;74.28;95627.72;5005077;28;20121;-76
2023/04/16 01:51:11;;;;;;;53.00;4.90;;;;;;;1.52;74.63;95630.44;5001603;28;20576;-76
2023/04/16 01:53:36;;;;;;;92.70;6.00;;;;;;;1.11;75.78;95637.03;5004779;28;20339;-76
2023/04/16 01:56:02;;;;;;;184.93;9.00;;;;;;;1.04;76.62;95637.59;5000628;28;20044;-75
2023/04/16 01:58:28;;;;;;;77.63;5.45;;;;;;;1.21;75.80;95638.94;4999578;28;20451;-75
2023/04/16 02:00:54;;;;;;;133.23;8.70;;;;;;;1.29;75.75;95638.34;5004388;28;20060;-75
2023/04/16 02:03:20;;;;;;;68.00;5.35;;;;;;;1.63;74.48;95635.72;5000586;28;20077;-76
2023/04/16 02:05:46;;;;;;;25.10;5.50;;;;;;;2.01;72.32;95634.44;5001092;28;20022;-76
2023/04/16 02:08:11;;;;;;;44.28;5.78;;;;;;;2.23;71.02;95643.22;5001088;28;20064;-76
2023/04/16 02:10:37;;;;;;;46.45;5.63;;;;;;;2.03;72.24;95647.47;5003892;28;20383;-76
2023/04/16 02:13:02;;;;;;;622.45;17.80;;;;;;;2.34;69.54;95638.88;4997135;28;20561;-76
2023/04/16 02:15:27;;;;;;;245.18;15.55;;;;;;;2.79;68.93;95635.19;4998363;28;20064;-76
2023/04/16 02:17:55;;;;;;;242.77;11.70;;;;;;;2.86;68.14;95636.34;4995489;28;20045;-75
2023/04/16 02:20:21;;;;;;;27.88;8.88;;;;;;;3.21;67.18;95636.97;4999848;28;20938;-76
2023/04/16 02:22:46;;;;;;;169.68;12.73;;;;;;;3.23;66.39;95642.91;4997431;28;20026;-76
2023/04/16 02:25:13;;;;;;;297.85;17.00;;;;;;;3.07;65.90;95645.19;4982349;28;20466;-75
2023/04/16 02:27:38;;;;;;;535.90;17.67;;;;;;;3.38;65.82;95640.78;5003631;28;20041;-75
2023/04/16 02:30:04;;;;;;;86.97;6.20;;;;;;;3.29;66.74;95636.28;4999693;28;20496;-76
2023/04/16 02:32:30;;;;;;;342.17;15.95;;;;;;;3.52;63.92;95634.34;4996014;28;20049;-76
2023/04/16 02:34:56;;;;;;;31.58;5.00;;;;;;;3.15;66.23;95638.31;5000299;28;20575;-76
2023/04/16 02:37:21;;;;;;;70.10;7.00;;;;;;;3.42;66.49;95629.00;4997874;28;20025;-76
2023/04/16 02:39:48;;;;;;;78.45;12.27;;;;;;;3.49;66.12;95636.41;5003723;28;20033;-76
2023/04/16 02:44:49;;;;;;;154.32;7.63;;;;;;;3.00;67.41;95635.16;4980186;23;20049;-71
2023/04/16 02:47:14;;;;;;;540.33;16.70;;;;;;;2.78;67.01;95637.00;4989646;28;20038;-71
2023/04/16 02:49:40;;;;;;;107.88;6.47;;;;;;;2.84;67.51;95640.91;4988488;28;20575;-72
2023/04/16 02:52:05;;;;;;;35.42;3.63;;;;;;;2.54;68.74;95645.13;4979473;28;20049;-71
2023/04/16 02:54:30;;;;;;;18.38;5.00;;;;;;;2.60;68.72;95638.53;4986327;28;20113;-72
2023/04/16 02:56:56;;;;;;;36.13;5.20;;;;;;;2.25;69.84;95646.53;4990492;28;20046;-71
2023/04/16 02:59:21;;;;;;;136.13;8.10;;;;;;;2.45;68.71;95636.19;4982186;28;20479;-71
2023/04/16 03:01:47;;;;;;;83.65;5.22;;;;;;;2.06;70.28;95641.97;4974149;28;20034;-71
2023/04/16 03:04:12;;;;;;;27.73;6.25;;;;;;;1.85;71.86;95641.88;4972917;28;20037;-71
2023/04/16 03:06:37;;;;;;;33.85;4.70;;;;;;;2.36;70.41;95639.59;4981041;28;20039;-71
2023/04/16 03:09:03;;;;;;;414.88;16.35;;;;;;;2.45;67.91;95632.75;4975638;28;21070;-71
2023/04/16 03:11:28;;;;;;;57.80;5.40;;;;;;;2.36;69.94;95637.81;4978113;28;20047;-71
2023/04/16 03:13:54;;;;;;;22.70;4.30;;;;;;;2.16;70.04;95638.56;4985464;28;20085;-71
2023/04/16 03:16:19;;;;;;;391.98;17.45;;;;;;;2.41;69.00;95641.84;4976099;28;20061;-71
2023/04/16 03:18:45;;;;;;;58.38;6.63;;;;;;;2.85;69.06;95639.94;4985251;28;20299;-72
2023/04/16 03:21:10;;;;;;;36.85;4.22;;;;;;;2.77;68.39;95642.38;4978405;28;20038;-72
2023/04/16 03:23:35;;;;;;;84.68;8.38;;;;;;;3.35;66.64;95634.94;4980512;28;20038;-71
2023/04/16 03:26:01;;;;;;;144.07;11.75;;;;;;;3.26;65.99;95640.00;4985807;28;20048;-72
2023/04/16 03:28:26;;;;;;;607.92;18.90;;;;;;;3.28;65.61;95634.63;4982024;28;20244;-71
2023/04/16 03:30:52;;;;;;;81.43;8.15;;;;;;;3.35;66.47;95633.13;4982057;28;20038;-72
2023/04/16 03:33:18;;;;;;;118.88;11.25;;;;;;;3.54;65.68;95636.84;4984432;28;20056;-72
2023/04/16 03:35:43;;;;;;;272.83;9.52;;;;;;;3.77;64.82;95626.09;4982341;28;20040;-72
2023/04/16 03:38:09;;;;;;;127.53;9.32;;;;;;;3.48;65.16;95626.84;4980997;28;20038;-71
2023/04/16 03:40:34;;;;;;;237.43;12.88;;;;;;;3.31;66.18;95631.75;4985277;28;20056;-72
2023/04/16 03:42:59;;;;;;;101.32;9.68;;;;;;;3.24;66.73;95635.84;4977840;28;20480;-71
2023/04/16 03:45:25;;;;;;;39.20;5.85;;;;;;;3.14;66.13;95634.00;4970907;28;20041;-72
2023/04/16 03:47:51;;;;;;;40.05;6.53;;;;;;;3.26;66.29;95633.91;4968331;28;20046;-72
2023/04/16 03:50:19;;;;;;;24.25;6.75;;;;;;;2.84;67.88;95646.16;4970162;28;20154;-72
2023/04/16 03:52:45;;;;;;;72.77;6.33;;;;;;;2.88;67.84;95644.09;4973224;28;20054;-72
2023/04/16 03:55:12;;;;;;;16.85;5.43;;;;;;;2.50;68.96;95643.72;4969973;28;20302;-71
2023/04/16 03:57:38;;;;;;;88.15;8.95;;;;;;;2.62;68.12;95649.75;4971674;28;20125;-72
2023/04/16 04:00:04;;;;;;;323.75;15.00;;;;;;;2.56;67.01;95640.59;4962586;28;20501;-72
2023/04/16 04:02:29;;;;;;;10.63;6.97;;;;;;;2.59;68.05;95653.44;4972131;28;20038;-72
2023/04/16 04:04:54;;;;;;;25.55;10.10;;;;;;;2.43;68.94;95660.94;4967378;28;20031;-72
2023/04/16 04:07:20;;;;;;;13.57;8.00;;;;;;;2.44;68.92;95652.09;4969996;28;20096;-72
2023/04/16 04:09:45;;;;;;;16.20;10.38;;;;;;;2.30;69.10;95666.34;4968746;28;20045;-71
2023/04/16 04:12:11;;;;;;;7.38;5.50;;;;;;;2.18;68.64;95660.31;4969637;28;20053;-71
2023/04/16 04:14:38;;;;;;;15.88;9.75;;;;;;;2.44;68.57;95650.31;4967403;28;20381;-71
2023/04/16 04:17:04;;;;;;;11.38;7.03;;;;;;;1.63;70.99;95661.97;4971357;28;20045;-71
2023/04/16 04:19:30;;;;;;;9.80;6.32;;;;;;;1.18;73.47;95668.00;4967709;28;20042;-71
2023/04/16 04:21:55;;;;;;;13.07;7.50;;;;;;;1.14;72.96;95656.94;4968644;28;20039;-71
2023/04/16 04:24:20;;;;;;;9.52;6.57;;;;;;;0.99;74.17;95666.81;4969795;28;20057;-71
2023/04/16 04:26:46;;;;;;;11.27;7.38;;;;;;;0.62;75.88;95661.72;4966399;28;20080;-71
2023/04/16 04:29:12;;;;;;;11.07;7.65;;;;;;;0.67;75.91;95665.66;4967885;28;20392;-71
2023/04/16 04:31:37;;;;;;;10.50;6.65;;;;;;;0.87;75.12;95671.19;4965429;28;20143;-71
2023/04/16 04:34:06;;;;;;;12.27;8.20;;;;;;;1.33;73.52;95660.75;4974422;28;20687;-71
2023/04/16 04:36:31;;;;;;;9.30;5.93;;;;;;;0.98;74.51;95667.75;4974712;28;20125;-71
2023/04/16 04:38:56;;;;;;;8.02;5.68;;;;;;;0.99;74.86;95672.06;4970032;28;20641;-71
2023/04/16 04:41:22;;;;;;;12.77;8.02;;;;;;;1.45;73.52;95659.81;4963411;28;20043;-71
2023/04/16 04:43:47;;;;;;;9.85;6.47;;;;;;;1.44;72.63;95671.25;4961690;28;20053;-71
2023/04/16 04:46:13;;;;;;;20.08;10.52;;;;;;;1.32;72.45;95669.56;4969465;28;20148;-71
2023/04/16 04:48:38;;;;;;;21.35;7.55;;;;;;;1.62;72.19;95682.13;4967977;28;20035;-71
2023/04/16 04:51:04;;;;;;;14.55;7.82;;;;;;;1.19;74.16;95674.94;4965288;28;20043;-71
2023/04/16 04:53:32;;;;;;;12.10;7.57;;;;;;;1.30;73.96;95680.16;4968764;28;20120;-71
2023/04/16 04:55:57;;;;;;;14.20;7.40;;;;;;;1.64;72.68;95675.94;4969387;28;20160;-71
2023/04/16 04:58:22;;;;;;;25.48;11.00;;;;;;;1.59;70.76;95677.13;4968074;28;20089;-71
2023/04/16 05:00:48;;;;;;;15.48;8.43;;;;;;;1.94;71.14;95684.97;4973456;28;20101;-71
2023/04/16 05:03:20;;;;;;;11.52;6.85;;;;;;;1.86;71.43;95682.94;4973674;28;20443;-71
2023/04/16 05:05:45;;;;;;;28.60;9.88;;;;;;;1.86;70.73;95688.19;4971833;28;20034;-71
2023/04/16 05:08:10;;;;;;;10.93;7.60;;;;;;;1.97;71.00;95690.81;4971163;28;20069;-71
2023/04/16 05:10:36;;;;;;;31.33;9.35;;;;;;;2.25;69.78;95687.75;4975982;28;20038;-71
2023/04/16 05:13:01;;;;;;;8.00;5.50;;;;;;;1.99;71.38;95702.03;4969418;28;20030;-71
2023/04/16 05:15:26;;;;;;;32.10;8.90;;;;;;;1.88;71.88;95696.78;4978511;28;20854;-71
2023/04/16 05:17:52;;;;;;;12.43;6.68;;;;;;;2.39;69.12;95697.97;4969545;28;20046;-71
2023/04/16 05:20:17;;;;;;;14.90;6.75;;;;;;;2.17;70.24;95696.25;4974734;28;20034;-71
2023/04/16 05:22:43;;;;;;;15.02;6.05;;;;;;;2.10;70.34;95698.53;4973453;28;20521;-71
2023/04/16 05:25:08;;;;;;;35.92;8.38;;;;;;;1.83;70.96;95705.03;4970098;28;20039;-71
2023/04/16 05:27:34;;;;;;;12.73;6.18;;;;;;;1.58;72.38;95706.97;4970823;28;20042;-71
2023/04/16 05:29:59;;;;;;;87.22;9.48;;;;;;;1.94;70.69;95711.22;4972521;28;20035;-71
2023/04/16 05:32:25;;;;;;;28.08;6.15;;;;;;;1.27;73.53;95709.28;4973604;28;20034;-71
2023/04/16 05:34:50;;;;;;;115.28;10.15;;;;;;;1.52;73.03;95710.00;4975992;28;20077;-71
2023/04/16 05:37:15;;;;;;;8.07;5.32;;;;;;;2.07;71.65;95706.66;4973714;28;20042;-71
2023/04/16 05:39:41;;;;;;;35.28;8.45;;;;;;;2.33;70.27;95705.53;4979668;28;20073;-71
2023/04/16 05:42:06;;;;;;;40.55;8.77;;;;;;;2.27;69.60;95698.97;4974076;28;20909;-71
2023/04/16 05:44:32;;;;;;;23.77;6.75;;;;;;;1.77;72.10;95716.00;4966673;28;20058;-71
2023/04/16 05:46:57;;;;;;;49.90;6.07;;;;;;;1.85;71.84;95712.78;4969008;28;20291;-71
2023/04/16 05:49:23;;;;;;;32.83;5.88;;;;;;;1.55;72.34;95717.69;4966979;28;20475;-71
2023/04/16 05:51:48;;;;;;;16.20;5.90;;;;;;;1.55;72.97;95717.69;4970563;28;20069;-71
2023/04/16 05:54:14;;;;;;;12.27;5.47;;;;;;;1.57;73.21;95720.19;4974980;28;20075;-71
2023/04/16 05:56:39;;;;;;;20.35;7.18;;;;;;;1.85;71.49;95718.03;4970815;28;20043;-71
2023/04/16 05:59:05;;;;;;;23.33;5.72;;;;;;;2.11;71.46;95720.41;4975398;28;20122;-71
2023/04/16 06:01:31;;;;;;;22.25;6.05;;;;;;;1.95;71.59;95715.53;4970003;28;20418;-71
2023/04/16 06:03:56;;;;;;;23.52;5.90;;;;;;;1.55;73.38;95717.69;4975619;28;20065;-71
2023/04/16 06:06:22;;;;;;;7.35;5.07;;;;;;;1.70;72.97;95714.84;4973825;28;20558;-71
2023/04/16 06:08:47;;;;;;;115.65;10.48;;;;;;;0.97;74.42;95708.88;4975711;28;20330;-71
2023/04/16 06:11:13;;;;;;;35.95;5.85;;;;;;;1.33;74.69;95716.66;4972923;28;20046;-71
2023/04/16 06:13:41;;;;;;;53.75;7.40;;;;;;;1.20;74.95;95713.31;4968752;28;20053;-71
2023/04/16 06:16:06;;;;;;;84.00;7.65;;;;;;;0.97;75.64;95715.91;4966342;28;20493;-71
2023/04/16 06:18:32;;;;;;;40.30;5.22;;;;;;;1.03;76.19;95728.56;4968769;28;20162;-71
2023/04/16 06:21:00;;;;;;;8.90;4.97;;;;;;;1.35;75.14;95714.78;4969404;28;20536;-71
2023/04/16 06:23:25;;;;;;;17.00;4.60;;;;;;;1.59;74.60;95715.66;4974552;28;20150;-70
2023/04/16 06:25:51;;;;;;;11.32;4.88;;;;;;;1.58;73.48;95716.59;4972761;28;20497;-71
2023/04/16 06:28:16;;;;;;;28.95;6.28;;;;;;;1.87;73.52;95714.31;4974543;28;20041;-71
2023/04/16 06:30:41;;;;;;;29.50;5.40;;;;;;;1.88;73.82;95712.53;4971340;28;20080;-71
2023/04/16 06:33:07;;;;;;;34.95;6.07;;;;;;;2.03;72.40;95715.75;4972744;28;20589;-71
2023/04/16 06:35:32;;;;;;;37.42;5.38;;;;;;;2.12;71.93;95709.75;4971213;28;20043;-71
2023/04/16 06:37:58;;;;;;;23.88;5.55;;;;;;;1.91;72.75;95714.94;4972415;28;20092;-71
2023/04/16 06:40:23;;;;;;;52.00;7.47;;;;;;;1.69;73.56;95718.38;4970043;28;20323;-71
2023/04/16 06:42:48;;;;;;;49.75;6.78;;;;;;;1.71;73.62;95719.94;4968856;28;20539;-71
2023/04/16 06:45:14;;;;;;;14.48;4.55;;;;;;;2.16;71.96;95718.22;4971924;28;20030;-70
2023/04/16 06:47:39;;;;;;;34.08;6.15;;;;;;;2.22;71.93;95725.59;4969468;28;20039;-71
2023/04/16 06:50:06;;;;;;;24.20;7.13;;;;;;;2.28;71.96;95729.53;4969734;28;20049;-71
2023/04/16 06:52:31;;;;;;;63.78;7.88;;;;;;;2.38;71.01;95724.38;4974361;28;20073;-71
2023/04/16 06:54:56;;;;;;;75.57;8.75;;;;;;;2.62;68.82;95726.00;4969535;28;20451;-71
2023/04/16 06:57:22;;;;;;;15.63;5.50;;;;;;;2.23;71.00;95729.91;4973523;28;20047;-71
2023/04/16 06:59:47;;;;;;;24.67;6.25;;;;;;;1.93;72.38;95736.66;4970950;28;20068;-71
2023/04/16 07:02:12;;;;;;;16.08;6.05;;;;;;;2.23;71.99;95729.06;4971330;28;20076;-71
2023/04/16 07:04:38;;;;;;;49.65;8.73;;;;;;;2.33;71.81;95726.53;4971832;28;20030;-70
2023/04/16 07:07:03;;;;;;;43.08;7.00;;;;;;;2.50;70.70;95730.44;4970868;28;20074;-71
2023/04/16 07:09:29;;;;;;;9.68;4.55;;;;;;;2.30;71.25;95732.88;4970191;28;20056;-71
2023/04/16 07:11:54;;;;;;;69.43;8.10;;;;;;;2.20;71.77;95738.03;4971780;28;20101;-71
2023/04/16 07:14:19;;;;;;;50.38;7.50;;;;;;;2.43;71.58;95745.03;4971764;28;20076;-71
2023/04/16 07:16:45;;;;;;;45.40;7.18;;;;;;;2.59;70.22;95734.13;4972758;28;20267;-71
2023/04/16 07:19:10;;;;;;;28.30;6.28;;;;;;;2.21;71.69;95741.50;4969333;28;20420;-71
2023/04/16 07:21:36;;;;;;;84.22;7.38;;;;;;;2.41;71.34;95733.81;4972608;28;20605;-71
2023/04/16 07:24:02;;;;;;;35.75;7.05;;;;;;;2.17;72.29;95734.84;4964185;28;20065;-71
2023/04/16 07:26:27;;;;;;;75.28;9.50;;;;;;;1.83;73.62;95736.53;4970158;28;20069;-70
2023/04/16 07:28:52;;;;;;;154.40;12.23;;;;;;;1.33;75.10;95742.91;4968970;28;20035;-70
2023/04/16 07:31:18;;;;;;;156.10;11.57;;;;;;;1.24;76.32;95741.00;4969418;28;20080;-70
2023/04/16 07:33:43;;;;;;;17.23;5.68;;;;;;;1.92;74.67;95734.97;4972812;28;20559;-70
2023/04/16 07:36:09;;;;;;;80.63;7.85;;;;;;;1.72;75.42;95744.41;4969461;28;20053;-70
2023/04/16 07:38:35;;;;;;;164.02;12.02;;;;;;;1.18;77.15;95754.56;4971889;28;20527;-70
2023/04/16 07:41:00;;;;;;;92.18;8.52;;;;;;;1.50;76.17;95752.13;4972660;28;20107;-71
2023/04/16 07:43:28;;;;;;;98.78;9.18;;;;;;;1.18;77.73;95758.03;4967109;28;20102;-71
2023/04/16 07:45:54;;;;;;;20.20;7.32;;;;;;;1.66;76.04;95756.22;4969776;28;20579;-71
2023/04/16 07:48:20;;;;;;;198.63;9.95;;;;;;;2.04;74.75;95756.81;4971216;28;20049;-71
2023/04/16 07:50:46;;;;;;;77.85;8.52;;;;;;;1.86;75.42;95759.94;4972155;28;20053;-71
2023/04/16 07:53:11;;;;;;;124.20;10.50;;;;;;;2.01;74.69;95760.50;4969552;28;20030;-71
2023/04/16 07:55:40;;;;;;;80.45;8.88;;;;;;;1.77;75.25;95770.31;4972687;28;20039;-70
2023/04/16 07:58:08;;;;;;;46.10;7.43;;;;;;;1.66;76.59;95769.34;4969778;28;20255;-70
2023/04/16 08:00:33;;;;;;;77.57;8.98;;;;;;;1.74;75.53;95768.75;4971489;28;20042;-71
2023/04/16 08:02:59;;;;;;;42.67;7.18;;;;;;;1.77;75.93;95772.94;4969198;28;20043;-70
2023/04/16 08:05:24;;;;;;;78.35;10.88;;;;;;;1.44;77.86;95772.75;4971788;28;20069;-70
2023/04/16 08:07:50;;;;;;;43.05;8.32;;;;;;;1.57;77.33;95781.38;4969701;28;20071;-71
2023/04/16 08:10:15;;;;;;;18.77;6.30;;;;;;;1.66;76.46;95781.66;4971434;28;20071;-70
2023/04/16 08:12:40;;;;;;;65.63;8.98;;;;;;;2.07;75.60;95781.97;4968375;28;20474;-71
2023/04/16 08:15:06;;;;;;;179.35;11.30;;;;;;;1.99;75.76;95793.94;4970237;28;20391;-70
2023/04/16 08:17:33;;;;;;;263.23;14.85;;;;;;;1.77;75.49;95800.00;4970538;28;20401;-71
2023/04/16 08:19:58;;;;;;;83.80;9.70;;;;;;;3.00;71.85;95805.34;4967280;28;20076;-71
2023/04/16 08:22:25;;;;;;;21.95;7.53;;;;;;;2.92;72.14;95813.84;4965599;28;20049;-71
2023/04/16 08:24:50;;;;;;;143.70;11.88;;;;;;;2.87;71.26;95806.34;4970646;28;20095;-70
2023/04/16 08:27:16;;;;;;;26.63;8.13;;;;;;;3.29;70.66;95810.81;4967160;28;20046;-71
2023/04/16 08:29:41;;;;;;;51.55;9.07;;;;;;;3.22;70.20;95814.06;4969085;28;20117;-70
2023/04/16 08:32:08;;;;;;;145.52;10.73;;;;;;;3.28;69.80;95811.78;4969136;28;20047;-71
2023/04/16 08:34:34;;;;;;;23.63;5.40;;;;;;;3.37;69.72;95823.31;4971071;28;20296;-70
2023/04/16 08:37:00;;;;;;;28.83;7.60;;;;;;;3.45;69.49;95828.00;4972933;28;20030;-70
2023/04/16 08:39:26;;;;;;;110.45;10.82;;;;;;;3.50;69.67;95825.81;4976612;28;20065;-70
2023/04/16 08:41:51;;;;;;;31.52;8.13;;;;;;;3.65;69.09;95828.97;4973332;28;20045;-70
2023/04/16 08:44:27;;;;;;;18.98;7.43;;;;;;;3.28;69.84;95834.63;4953330;28;20091;-70
2023/04/16 08:46:57;;;;;;;18.95;8.23;;;;;;;3.72;68.34;95831.06;4971846;28;20042;-71
2023/04/16 08:49:26;;;;;;;33.05;12.90;;;;;;;3.53;67.95;95830.81;4971229;28;20401;-71
2023/04/16 08:51:55;;;;;;;14.85;9.23;;;;;;;3.73;68.41;95838.84;4974913;28;20138;-71
2023/04/16 08:54:41;;;;;;;26.77;9.77;;;;;;;4.35;66.19;95839.84;4976208;28;20062;-71
2023/04/16 08:57:06;;;;;;;18.95;9.25;;;;;;;4.42;65.14;95840.97;4979548;28;20459;-71
2023/04/16 08:59:32;;;;;;;15.07;8.65;;;;;;;4.44;65.56;95855.69;4971855;28;20031;-70
2023/04/16 09:01:57;;;;;;;19.92;13.90;;;;;;;3.85;65.09;95855.44;4969985;28;20034;-71
2023/04/16 09:04:26;;;;;;;14.02;9.40;;;;;;;4.32;65.60;95859.41;4973764;28;20551;-71
2023/04/16 09:06:51;;;;;;;21.38;13.38;;;;;;;3.32;67.90;95861.50;4971681;28;20698;-70
2023/04/16 09:09:17;;;;;;;24.70;15.43;;;;;;;3.53;65.86;95857.16;4973094;28;20038;-71
2023/04/16 09:11:43;;;;;;;18.67;11.35;;;;;;;3.50;69.76;95872.38;4963104;28;20105;-71
2023/04/16 09:14:09;;;;;;;24.08;14.30;;;;;;;3.32;67.73;95862.34;4954624;28;20235;-71
2023/04/16 09:16:34;;;;;;;29.67;16.02;;;;;;;3.38;67.26;95867.13;4980978;28;20030;-71
2023/04/16 09:19:00;;;;;;;23.05;15.48;;;;;;;4.24;64.15;95867.94;4971965;28;20039;-70
2023/04/16 09:21:25;;;;;;;15.68;12.05;;;;;;;4.78;62.77;95857.16;4980439;28;20042;-71
2023/04/16 09:23:52;;;;;;;20.42;13.38;;;;;;;5.01;61.26;95864.00;4952046;28;20035;-71
2023/04/16 09:26:17;;;;;;;16.63;11.52;;;;;;;5.12;62.18;95863.91;4969129;28;20406;-71
2023/04/16 09:28:44;;;;;;;18.60;12.77;;;;;;;5.57;59.83;95872.25;4966811;28;20031;-70
2023/04/16 09:31:14;;;;;;;15.38;8.75;;;;;;;4.89;60.99;95868.56;4968502;28;20039;-71
2023/04/16 09:33:40;;;;;;;15.68;10.45;;;;;;;5.00;61.26;95865.00;4968225;28;20030;-71
2023/04/16 09:36:06;;;;;;;16.02;11.18;;;;;;;5.42;60.26;95875.34;4973457;28;20042;-71
2023/04/16 09:38:53;;;;;;;19.50;11.82;;;;;;;5.42;59.66;95875.34;4980326;28;20042;-71
2023/04/16 09:41:18;;;;;;;17.85;12.57;;;;;;;5.63;58.63;95871.69;4976029;28;20057;-71
2023/04/16 09:44:00;;;;;;;21.88;15.50;;;;;;;5.12;60.25;95882.41;4979121;28;20503;-71
2023/04/16 09:46:55;;;;;;;20.13;12.60;;;;;;;5.87;58.52;95888.91;4971957;28;20046;-71
2023/04/16 09:49:21;;;;;;;18.40;11.18;;;;;;;5.51;58.72;95888.69;4969395;28;20073;-71
2023/04/16 09:51:48;;;;;;;22.38;15.18;;;;;;;3.60;63.00;95893.50;4969251;28;20072;-71
2023/04/16 09:54:14;;;;;;;18.23;10.60;;;;;;;4.03;65.20;95894.34;4965809;28;20073;-71
2023/04/16 09:56:46;;;;;;;19.92;14.32;;;;;;;4.36;62.66;95886.31;4969425;28;20035;-71
2023/04/16 09:59:21;;;;;;;20.90;12.23;;;;;;;5.05;60.75;95895.28;4965458;28;20072;-71
2023/04/16 10:01:48;;;;;;;18.55;11.35;;;;;;;4.44;62.51;95895.25;4968569;28;20118;-71
2023/04/16 10:04:13;;;;;;;21.80;15.30;;;;;;;4.88;60.96;95882.72;4965474;28;20181;-71
2023/04/16 10:06:39;;;;;;;19.65;12.65;;;;;;;5.09;59.75;95885.31;4970611;28;20042;-71
2023/04/16 10:09:06;;;;;;;18.13;11.15;;;;;;;5.21;59.58;95897.41;4969899;28;20038;-71
2023/04/16 10:11:31;;;;;;;20.15;14.52;;;;;;;5.45;59.04;95895.34;4972335;28;20057;-71
2023/04/16 10:13:56;;;;;;;19.27;12.93;;;;;;;5.58;58.38;95898.53;4974774;28;20046;-71
2023/04/16 10:16:22;;;;;;;21.42;13.85;;;;;;;5.96;57.57;95903.91;4971535;28;20629;-71
2023/04/16 10:18:48;;;;;;;20.13;13.52;;;;;;;5.96;56.98;95909.19;4947563;28;20131;-71
2023/04/16 10:21:15;;;;;;;23.75;14.13;;;;;;;5.35;58.05;95901.44;4965740;28;20104;-71
2023/04/16 10:23:41;;;;;;;18.45;11.63;;;;;;;5.42;59.16;95914.09;4965301;28;20050;-71
2023/04/16 10:26:06;;;;;;;21.25;14.50;;;;;;;5.20;58.49;95908.09;4965212;28;20503;-71
2023/04/16 10:28:34;;;;;;;17.75;11.75;;;;;;;5.65;57.47;95912.03;4968426;28;20045;-71
2023/04/16 10:31:00;;;;;;;17.45;9.70;;;;;;;5.43;58.27;95918.41;4967548;28;20125;-71
2023/04/16 10:33:38;;;;;;;17.80;13.50;;;;;;;4.04;63.96;95915.28;4948115;28;20189;-71
2023/04/16 10:36:14;;;;;;;23.05;15.30;;;;;;;4.02;63.55;95919.03;4970199;28;20462;-71
2023/04/16 10:38:47;;;;;;;19.65;14.50;;;;;;;5.24;59.03;95921.88;4965100;28;20041;-71
2023/04/16 10:41:12;;;;;;;20.55;13.10;;;;;;;6.11;57.10;95920.19;4963897;28;20584;-71
2023/04/16 10:43:45;;;;;;;15.45;10.02;;;;;;;6.63;56.13;95921.56;4967956;28;20085;-71
2023/04/16 10:46:30;;;;;;;18.63;14.75;;;;;;;4.41;61.51;95934.19;4967206;28;20177;-71
2023/04/16 10:48:58;;;;;;;19.17;14.20;;;;;;;4.44;62.47;95932.16;4967852;28;20062;-71
2023/04/16 10:51:24;;;;;;;;;;;;;;;5.00;59.71;95923.84;4965045;28;20065;-71
2023/04/16 10:53:50;;;;;;;18.50;13.10;;;;;;;5.63;56.34;95916.59;4966987;28;19918;-71
2023/04/16 10:56:21;;;;;;;21.30;14.05;;;;;;;4.87;60.41;95926.75;4965627;28;20073;-71
2023/04/16 10:58:47;;;;;;;19.58;14.48;;;;;;;4.49;62.32;95926.47;4977084;28;20038;-71
2023/04/16 11:01:13;;;;;;;19.00;14.52;;;;;;;5.51;58.28;95930.94;4971200;28;20030;-71
2023/04/16 11:04:22;;;;;;;20.38;15.30;;;;;;;4.00;64.60;95942.00;4977622;28;20073;-71
2023/04/16 11:07:10;;;;;;;23.08;14.52;;;;;;;5.72;57.21;95936.91;4971211;28;20073;-71
2023/04/16 11:10:04;;;;;;;18.58;14.13;;;;;;;5.05;60.03;95936.66;4965941;28;20275;-71
2023/04/16 11:12:39;;;;;;;20.25;13.32;;;;;;;6.64;55.53;95933.00;4964112;28;20113;-71
2023/04/16 11:15:09;;;;;;;17.45;13.40;;;;;;;5.35;57.33;95934.94;4976908;28;20034;-71
2023/04/16 11:18:02;;;;;;;19.38;14.57;;;;;;;5.48;57.08;95942.63;4963669;28;20605;-71
2023/04/16 11:20:28;;;;;;;20.38;14.48;;;;;;;4.51;60.37;95944.78;4965539;28;20054;-71
2023/04/16 11:22:54;;;;;;;20.65;14.48;;;;;;;3.68;64.74;95944.56;4955479;28;20047;-71
2023/04/16 11:25:23;;;;;;;22.85;14.88;;;;;;;4.21;61.85;95944.63;4948731;28;20074;-71
2023/04/16 11:27:49;;;;;;;20.35;14.38;;;;;;;4.73;60.23;95937.69;4947004;28;20219;-71
2023/04/16 11:30:15;;;;;;;19.85;14.52;;;;;;;5.20;58.86;95934.50;4942420;28;20337;-71